Observation data for Friona on 10/13/2019      Previous  Date       Current Mesonet Observations  Soil Data  Daily Summary Page  Observations in Plain Language
KFAS 130500Z 22011KT 11/02 A30 RMK A01 T01090024  RH  057%=      5-min Rain = 0
KFAS 130505Z 22011KT 11/02 A30 RMK A01 T01070024  RH  057%=      5-min Rain = 0
KFAS 130510Z 22011KT 11/02 A30 RMK A01 T01070024  RH  057%=      5-min Rain = 0
KFAS 130515Z 22011KT 11/02 A30 RMK A01 T01070024  RH  057%=      5-min Rain = 0
KFAS 130520Z 21011KT 11/02 A2999 RMK A01 T01060024  RH  058%=      5-min Rain = 0
KFAS 130525Z 21011KT 11/02 A2999 RMK A01 T01060024  RH  058%=      5-min Rain = 0
KFAS 130530Z 21010KT 10/03 A2999 RMK A01 T01040025  RH  059%=      5-min Rain = 0
KFAS 130535Z 21011KT 11/02 A2999 RMK A01 T01050024  RH  058%=      5-min Rain = 0
KFAS 130540Z 21010G15KT 11/03 A2999 RMK A01 T01070025  RH  058%=      5-min Rain = 0
KFAS 130545Z 22011KT 11/03 A2999 RMK A01 T01060025  RH  058%=      5-min Rain = 0
KFAS 130550Z 21011KT 11/03 A2999 RMK A01 T01060025  RH  058%=      5-min Rain = 0
KFAS 130555Z 21010KT 11/03 A2999 RMK A01 T01050026  RH  059%=      5-min Rain = 0
KFAS 130600Z 22009KT 10/03 A2999 RMK A01 T01040026  RH  060%=      5-min Rain = 0
KFAS 130605Z 21008KT 10/03 A2999 RMK A01 T01010028  RH  061%=      5-min Rain = 0
KFAS 130610Z 22006KT 10/03 A2999 RMK A01 T00980028  RH  063%=      5-min Rain = 0
KFAS 130615Z 24005KT 09/03 A2999 RMK A01 T00940028  RH  065%=      5-min Rain = 0
KFAS 130620Z 24006KT 09/03 A2999 RMK A01 T00930029  RH  065%=      5-min Rain = 0
KFAS 130625Z 24007KT 10/03 A2999 RMK A01 T00960029  RH  064%=      5-min Rain = 0
KFAS 130630Z 24009KT 10/03 A2999 RMK A01 T01010029  RH  062%=      5-min Rain = 0
KFAS 130635Z 23009KT 10/03 A2999 RMK A01 T01040029  RH  061%=      5-min Rain = 0
KFAS 130640Z 23009KT 10/03 A2999 RMK A01 T01040029  RH  061%=      5-min Rain = 0
KFAS 130645Z 23008KT 10/03 A2999 RMK A01 T01030029  RH  061%=      5-min Rain = 0
KFAS 130650Z 23008KT 10/03 A2999 RMK A01 T01040028  RH  061%=      5-min Rain = 0
KFAS 130655Z 23009KT 11/03 A2999 RMK A01 T01050028  RH  060%=      5-min Rain = 0
KFAS 130700Z 23011G16KT 11/03 A2998 RMK A01 T01070027  RH  059%=      5-min Rain = 0
KFAS 130705Z 23011KT 11/03 A2998 RMK A01 T01070027  RH  059%=      5-min Rain = 0
KFAS 130710Z 23012KT 11/03 A2998 RMK A01 T01070026  RH  058%=      5-min Rain = 0
KFAS 130715Z 24012KT 11/03 A2998 RMK A01 T01070026  RH  058%=      5-min Rain = 0
KFAS 130720Z 24011KT 11/03 A2998 RMK A01 T01050026  RH  059%=      5-min Rain = 0
KFAS 130725Z 24010KT 10/03 A2999 RMK A01 T01040026  RH  060%=      5-min Rain = 0
KFAS 130730Z 24009KT 10/03 A2999 RMK A01 T01020026  RH  060%=      5-min Rain = 0
KFAS 130735Z 23011KT 10/03 A2999 RMK A01 T01030026  RH  060%=      5-min Rain = 0
KFAS 130740Z 23010KT 10/03 A2999 RMK A01 T01030026  RH  060%=      5-min Rain = 0
KFAS 130745Z 23011KT 10/03 A2999 RMK A01 T01030025  RH  059%=      5-min Rain = 0
KFAS 130750Z 23010KT 10/03 A2999 RMK A01 T01030025  RH  059%=      5-min Rain = 0
KFAS 130755Z 23009KT 10/03 A2998 RMK A01 T01040025  RH  059%=      5-min Rain = 0
KFAS 130800Z 23009KT 10/03 A2998 RMK A01 T01030025  RH  059%=      5-min Rain = 0
KFAS 130805Z 23009KT 10/03 A2998 RMK A01 T01030025  RH  059%=      5-min Rain = 0
KFAS 130810Z 23010KT 10/03 A2998 RMK A01 T01030025  RH  059%=      5-min Rain = 0
KFAS 130815Z 23010G15KT 10/03 A2998 RMK A01 T01040025  RH  059%=      5-min Rain = 0
KFAS 130820Z 24011KT 10/03 A2998 RMK A01 T01040025  RH  059%=      5-min Rain = 0
KFAS 130825Z 23013KT 11/03 A2998 RMK A01 T01060025  RH  058%=      5-min Rain = 0
KFAS 130830Z 23015G20KT 11/03 A2997 RMK A01 T01070025  RH  058%=      5-min Rain = 0
KFAS 130835Z 23015G20KT 11/02 A2997 RMK A01 T01090024  RH  057%=      5-min Rain = 0
KFAS 130840Z 24014G19KT 11/02 A2998 RMK A01 T01090024  RH  057%=      5-min Rain = 0
KFAS 130845Z 24012KT 11/02 A2998 RMK A01 T01080024  RH  057%=      5-min Rain = 0
KFAS 130850Z 25010KT 11/03 A2998 RMK A01 T01060025  RH  058%=      5-min Rain = 0
KFAS 130855Z 26009KT 10/03 A2998 RMK A01 T01020025  RH  060%=      5-min Rain = 0
KFAS 130900Z 27008KT 10/03 A2998 RMK A01 T00990026  RH  062%=      5-min Rain = 0
KFAS 130905Z 26008KT 09/03 A2998 RMK A01 T00920027  RH  065%=      5-min Rain = 0
KFAS 130910Z 26008KT 09/03 A2998 RMK A01 T00860027  RH  067%=      5-min Rain = 0
KFAS 130915Z 25009KT 08/03 A2998 RMK A01 T00840026  RH  068%=      5-min Rain = 0
KFAS 130920Z 25008KT 08/03 A2998 RMK A01 T00810026  RH  070%=      5-min Rain = 0
KFAS 130925Z 26008KT 08/03 A2998 RMK A01 T00780026  RH  071%=      5-min Rain = 0
KFAS 130930Z 25008KT 08/03 A2998 RMK A01 T00780027  RH  071%=      5-min Rain = 0
KFAS 130935Z 25009KT 08/03 A2998 RMK A01 T00770027  RH  072%=      5-min Rain = 0
KFAS 130940Z 25009KT 08/03 A2997 RMK A01 T00790027  RH  071%=      5-min Rain = 0
KFAS 130945Z 25009KT 08/03 A2998 RMK A01 T00810027  RH  070%=      5-min Rain = 0
KFAS 130950Z 26008KT 08/03 A2998 RMK A01 T00790027  RH  071%=      5-min Rain = 0
KFAS 130955Z 26007KT 08/03 A2997 RMK A01 T00770028  RH  072%=      5-min Rain = 0
KFAS 131000Z 29005KT 07/03 A2997 RMK A01 T00730026  RH  073%=      5-min Rain = 0
KFAS 131005Z 30006KT 06/02 A2997 RMK A01 T00630023  RH  077%=      5-min Rain = 0
KFAS 131010Z 27008KT 06/03 A2997 RMK A01 T00640026  RH  078%=      5-min Rain = 0
KFAS 131015Z 28007KT 07/03 A2997 RMK A01 T00700027  RH  075%=      5-min Rain = 0
KFAS 131020Z 29008KT 07/03 A2997 RMK A01 T00700027  RH  075%=      5-min Rain = 0
KFAS 131025Z 28008KT 07/03 A2997 RMK A01 T00670026  RH  077%=      5-min Rain = 0
KFAS 131030Z 26008KT 07/03 A2997 RMK A01 T00690027  RH  076%=      5-min Rain = 0
KFAS 131035Z 26009KT 07/03 A2997 RMK A01 T00720026  RH  074%=      5-min Rain = 0
KFAS 131040Z 27008KT 07/03 A2997 RMK A01 T00730027  RH  074%=      5-min Rain = 0
KFAS 131045Z 30006KT 07/03 A2998 RMK A01 T00690025  RH  075%=      5-min Rain = 0
KFAS 131050Z 30006KT 06/02 A2998 RMK A01 T00620024  RH  078%=      5-min Rain = 0
KFAS 131055Z 27007KT 06/03 A2998 RMK A01 T00610025  RH  079%=      5-min Rain = 0
KFAS 131100Z 28008KT 07/03 A2998 RMK A01 T00650026  RH  078%=      5-min Rain = 0
KFAS 131105Z 27009KT 07/03 A2998 RMK A01 T00690027  RH  076%=      5-min Rain = 0
KFAS 131110Z 27009KT 07/03 A2997 RMK A01 T00730028  RH  074%=      5-min Rain = 0
KFAS 131115Z 26010KT 08/03 A2997 RMK A01 T00760028  RH  073%=      5-min Rain = 0
KFAS 131120Z 25012KT 08/03 A2997 RMK A01 T00750029  RH  074%=      5-min Rain = 0
KFAS 131125Z 26012KT 08/03 A2997 RMK A01 T00770029  RH  073%=      5-min Rain = 0
KFAS 131130Z 26011KT 08/03 A2997 RMK A01 T00790029  RH  072%=      5-min Rain = 0
KFAS 131135Z 26011KT 08/03 A2997 RMK A01 T00780029  RH  072%=      5-min Rain = 0
KFAS 131140Z 27009KT 08/03 A2997 RMK A01 T00760029  RH  073%=      5-min Rain = 0
KFAS 131145Z 27009KT 08/03 A2997 RMK A01 T00770029  RH  073%=      5-min Rain = 0
KFAS 131150Z 26009KT 08/03 A2997 RMK A01 T00780029  RH  072%=      5-min Rain = 0
KFAS 131155Z 26009KT 08/03 A2998 RMK A01 T00780029  RH  073%=      5-min Rain = 0
KFAS 131200Z 26009KT 08/03 A2998 RMK A01 T00770029  RH  073%=      5-min Rain = 0
KFAS 131205Z 27009KT 08/03 A2998 RMK A01 T00760029  RH  073%=      5-min Rain = 0
KFAS 131210Z 26009KT 07/03 A2998 RMK A01 T00730029  RH  075%=      5-min Rain = 0
KFAS 131215Z 25010KT 07/03 A2998 RMK A01 T00700029  RH  076%=      5-min Rain = 0
KFAS 131220Z 25011KT 07/03 A2998 RMK A01 T00670028  RH  077%=      5-min Rain = 0
KFAS 131225Z 25010KT 07/03 A2998 RMK A01 T00680028  RH  077%=      5-min Rain = 0
KFAS 131230Z 24010KT 07/03 A2998 RMK A01 T00690027  RH  076%=      5-min Rain = 0
KFAS 131235Z 24012KT 07/03 A2998 RMK A01 T00710027  RH  075%=      5-min Rain = 0
KFAS 131240Z 24012KT 07/03 A2998 RMK A01 T00720027  RH  074%=      5-min Rain = 0
KFAS 131245Z 25013KT 07/03 A2998 RMK A01 T00740027  RH  073%=      5-min Rain = 0
KFAS 131250Z 25013KT 08/03 A2998 RMK A01 T00750027  RH  073%=      5-min Rain = 0
KFAS 131255Z 25014KT 08/03 A2998 RMK A01 T00760026  RH  072%=      5-min Rain = 0
KFAS 131300Z 25014KT 08/03 A2998 RMK A01 T00770027  RH  072%=      5-min Rain = 0
KFAS 131305Z 25013KT 08/03 A2998 RMK A01 T00760027  RH  072%=      5-min Rain = 0
KFAS 131310Z 25013KT 08/03 A2998 RMK A01 T00750027  RH  073%=      5-min Rain = 0
KFAS 131315Z 25012KT 07/03 A2998 RMK A01 T00730027  RH  074%=      5-min Rain = 0
KFAS 131320Z 26012KT 07/03 A2999 RMK A01 T00730028  RH  074%=      5-min Rain = 0
KFAS 131325Z 26010KT 08/03 A2999 RMK A01 T00750028  RH  074%=      5-min Rain = 0
KFAS 131330Z 26011KT 08/03 A2999 RMK A01 T00760029  RH  073%=      5-min Rain = 0
KFAS 131335Z 25011KT 08/03 A2999 RMK A01 T00780030  RH  073%=      5-min Rain = 0
KFAS 131340Z 25011KT 08/03 A2999 RMK A01 T00800031  RH  072%=      5-min Rain = 0
KFAS 131345Z 25011KT 08/03 A2999 RMK A01 T00840032  RH  071%=      5-min Rain = 0
KFAS 131350Z 25012KT 09/03 A2999 RMK A01 T00890032  RH  069%=      5-min Rain = 0
KFAS 131355Z 26011KT 09/03 A30 RMK A01 T00930033  RH  067%=      5-min Rain = 0
KFAS 131400Z 26010KT 10/04 A30 RMK A01 T00960035  RH  067%=      5-min Rain = 0
KFAS 131405Z 26009KT 10/04 A30 RMK A01 T01000037  RH  066%=      5-min Rain = 0
KFAS 131410Z 26010KT 10/04 A30 RMK A01 T01040039  RH  065%=      5-min Rain = 0
KFAS 131415Z 26010KT 11/04 A30 RMK A01 T01080040  RH  064%=      5-min Rain = 0
KFAS 131420Z 26010G15KT 11/04 A30 RMK A01 T01130041  RH  063%=      5-min Rain = 0
KFAS 131425Z 25012KT 12/04 A30 RMK A01 T01180042  RH  061%=      5-min Rain = 0
KFAS 131430Z 26010KT 12/04 A30 RMK A01 T01220044  RH  060%=      5-min Rain = 0
KFAS 131435Z 26009KT 13/05 A3001 RMK A01 T01280046  RH  059%=      5-min Rain = 0
KFAS 131440Z 27008KT 14/05 A3001 RMK A01 T01350048  RH  057%=      5-min Rain = 0
KFAS 131445Z 25010KT 14/05 A3001 RMK A01 T01400049  RH  056%=      5-min Rain = 0
KFAS 131450Z 25011KT 14/05 A3001 RMK A01 T01430049  RH  054%=      5-min Rain = 0
KFAS 131455Z 25011KT 15/05 A3001 RMK A01 T01470050  RH  053%=      5-min Rain = 0
KFAS 131500Z 26010KT 15/05 A3001 RMK A01 T01530050  RH  051%=      5-min Rain = 0
KFAS 131505Z 27010KT 16/05 A3001 RMK A01 T01600049  RH  049%=      5-min Rain = 0
KFAS 131510Z 26010KT 17/05 A3001 RMK A01 T01660048  RH  046%=      5-min Rain = 0
KFAS 131515Z 27010KT 17/05 A3002 RMK A01 T01730047  RH  044%=      5-min Rain = 0
KFAS 131520Z 27009KT 18/05 A3002 RMK A01 T01790048  RH  043%=      5-min Rain = 0
KFAS 131525Z 27010KT 19/04 A3002 RMK A01 T01860044  RH  040%=      5-min Rain = 0
KFAS 131530Z 27013KT 19/03 A3002 RMK A01 T01920032  RH  035%=      5-min Rain = 0
KFAS 131535Z 27012KT 20/03 A3002 RMK A01 T01960029  RH  034%=      5-min Rain = 0
KFAS 131540Z 27013KT 20/02 A3002 RMK A01 T01980024  RH  032%=      5-min Rain = 0
KFAS 131545Z 27013KT 20/02 A3002 RMK A01 T02000023  RH  031%=      5-min Rain = 0
KFAS 131550Z 27011KT 21/03 A3002 RMK A01 T02060027  RH  031%=      5-min Rain = 0
KFAS 131555Z 29012KT 21/02 A3002 RMK A01 T02120023  RH  029%=      5-min Rain = 0
KFAS 131600Z 28011KT 21/02 A3002 RMK A01 T02140021  RH  028%=      5-min Rain = 0
KFAS 131605Z 29011KT 22/02 A3002 RMK A01 T02160020  RH  028%=      5-min Rain = 0
KFAS 131610Z 28010KT 22/01 A3002 RMK A01 T02210012  RH  026%=      5-min Rain = 0
KFAS 131615Z 27009KT 22/02 A3002 RMK A01 T02240015  RH  025%=      5-min Rain = 0
KFAS 131620Z 28010KT 23/01 A3002 RMK A01 T02280009  RH  024%=      5-min Rain = 0
KFAS 131625Z 30011KT 23/00 A3002 RMK A01 T02340002  RH  022%=      5-min Rain = 0
KFAS 131630Z 30013G19KT 24/M01 A3002 RMK A01 T02351014  RH  019%=      5-min Rain = 0
KFAS 131635Z 31015KT 23/M02 A3002 RMK A01 T02341016  RH  019%=      5-min Rain = 0
KFAS 131640Z 31013KT 23/M01 A3002 RMK A01 T02341007  RH  020%=      5-min Rain = 0
KFAS 131645Z 30013G18KT 23/M01 A3002 RMK A01 T02341009  RH  020%=      5-min Rain = 0
KFAS 131650Z 31014KT 24/M02 A3002 RMK A01 T02381017  RH  018%=      5-min Rain = 0
KFAS 131655Z 31014KT 24/M02 A3002 RMK A01 T02361021  RH  018%=      5-min Rain = 0
KFAS 131700Z 30013KT 24/M02 A3002 RMK A01 T02351020  RH  018%=      5-min Rain = 0
KFAS 131705Z 32012KT 24/M01 A3002 RMK A01 T02371012  RH  019%=      5-min Rain = 0
KFAS 131710Z 31011KT 24/M01 A3002 RMK A01 T02421006  RH  020%=      5-min Rain = 0
KFAS 131715Z 31011G16KT 24/M01 A3002 RMK A01 T02431011  RH  019%=      5-min Rain = 0
KFAS 131720Z 31013KT 24/M02 A3002 RMK A01 T02421018  RH  018%=      5-min Rain = 0
KFAS 131725Z 30012KT 24/M02 A3002 RMK A01 T02431018  RH  018%=      5-min Rain = 0
KFAS 131730Z 31008KT 24/M02 A3002 RMK A01 T02431016  RH  018%=      5-min Rain = 0
KFAS 131735Z 31011KT 25/M02 A3002 RMK A01 T02451016  RH  018%=      5-min Rain = 0
KFAS 131740Z 30011KT 25/M02 A3002 RMK A01 T02461015  RH  018%=      5-min Rain = 0
KFAS 131745Z 32007KT 25/M02 A3002 RMK A01 T02481016  RH  018%=      5-min Rain = 0
KFAS 131750Z 30008KT 25/M02 A3002 RMK A01 T02461019  RH  017%=      5-min Rain = 0
KFAS 131755Z 27007G12KT 25/M02 A3002 RMK A01 T02501019  RH  017%=      5-min Rain = 0
KFAS 131800Z 31010KT 25/M02 A3001 RMK A01 T02511015  RH  017%=      5-min Rain = 0
KFAS 131805Z 28009KT 25/M02 A3001 RMK A01 T02531020  RH  017%=      5-min Rain = 0
KFAS 131810Z 26008G14KT 25/M02 A3001 RMK A01 T02531015  RH  017%=      5-min Rain = 0
KFAS 131815Z 30008G16KT 25/M02 A3001 RMK A01 T02541022  RH  016%=      5-min Rain = 0
KFAS 131820Z 29009G15KT 25/M03 A3001 RMK A01 T02531028  RH  016%=      5-min Rain = 0
KFAS 131825Z 27009KT 26/M03 A3001 RMK A01 T02551029  RH  015%=      5-min Rain = 0
KFAS 131830Z 30009KT 26/M02 A3001 RMK A01 T02571024  RH  016%=      5-min Rain = 0
KFAS 131835Z 27008KT 26/M03 A3001 RMK A01 T02571030  RH  015%=      5-min Rain = 0
KFAS 131840Z 29005G10KT 26/M04 A30 RMK A01 T02561040  RH  014%=      5-min Rain = 0
KFAS 131845Z 29008KT 26/M03 A30 RMK A01 T02561033  RH  015%=      5-min Rain = 0
KFAS 131850Z 30006G11KT 26/M03 A30 RMK A01 T02581027  RH  015%=      5-min Rain = 0
KFAS 131855Z 30007G12KT 26/M04 A30 RMK A01 T02581038  RH  014%=      5-min Rain = 0
KFAS 131900Z 26005KT 26/M03 A2999 RMK A01 T02601029  RH  015%=      5-min Rain = 0
KFAS 131905Z 29007KT 26/M02 A2999 RMK A01 T02591024  RH  015%=      5-min Rain = 0
KFAS 131910Z 26008KT 26/M02 A2999 RMK A01 T02631020  RH  016%=      5-min Rain = 0
KFAS 131915Z 25007G12KT 26/M02 A2999 RMK A01 T02611020  RH  016%=      5-min Rain = 0
KFAS 131920Z 24008KT 26/M02 A2998 RMK A01 T02611017  RH  016%=      5-min Rain = 0
KFAS 131925Z 22009KT 26/M02 A2998 RMK A01 T02641019  RH  016%=      5-min Rain = 0
KFAS 131930Z 27007G13KT 26/M02 A2998 RMK A01 T02641020  RH  015%=      5-min Rain = 0
KFAS 131935Z 27007KT 27/M02 A2998 RMK A01 T02681016  RH  016%=      5-min Rain = 0
KFAS 131940Z 26008G13KT 27/M02 A2997 RMK A01 T02681021  RH  015%=      5-min Rain = 0
KFAS 131945Z 26008KT 27/M02 A2997 RMK A01 T02671020  RH  015%=      5-min Rain = 0
KFAS 131950Z 26008G13KT 27/M02 A2997 RMK A01 T02671019  RH  015%=      5-min Rain = 0
KFAS 131955Z 25007G12KT 27/M03 A2997 RMK A01 T02661028  RH  014%=      5-min Rain = 0
KFAS 132000Z 25007KT 27/M02 A2997 RMK A01 T02671021  RH  015%=      5-min Rain = 0
KFAS 132005Z 26010G18KT 27/M02 A2996 RMK A01 T02671023  RH  015%=      5-min Rain = 0
KFAS 132010Z 25010KT 27/M03 A2996 RMK A01 T02681027  RH  014%=      5-min Rain = 0
KFAS 132015Z 26009KT 27/M03 A2996 RMK A01 T02661032  RH  014%=      5-min Rain = 0
KFAS 132020Z 25011G16KT 27/M03 A2996 RMK A01 T02681026  RH  014%=      5-min Rain = 0
KFAS 132025Z 26010KT 27/M03 A2996 RMK A01 T02661030  RH  014%=      5-min Rain = 0
KFAS 132030Z 25012G17KT 27/M02 A2996 RMK A01 T02691024  RH  015%=      5-min Rain = 0
KFAS 132035Z 24008KT 27/M03 A2996 RMK A01 T02691025  RH  014%=      5-min Rain = 0
KFAS 132040Z 23009KT 27/M03 A2996 RMK A01 T02691025  RH  014%=      5-min Rain = 0
KFAS 132045Z 25009G14KT 27/M02 A2996 RMK A01 T02681023  RH  015%=      5-min Rain = 0
KFAS 132050Z 27007G15KT 27/M03 A2996 RMK A01 T02691028  RH  014%=      5-min Rain = 0
KFAS 132055Z 26009G14KT 27/M03 A2996 RMK A01 T02701028  RH  014%=      5-min Rain = 0
KFAS 132100Z 25010G15KT 27/M02 A2996 RMK A01 T02691022  RH  015%=      5-min Rain = 0
KFAS 132105Z 25012KT 27/M03 A2996 RMK A01 T02681025  RH  014%=      5-min Rain = 0
KFAS 132110Z 24011KT 27/M03 A2995 RMK A01 T02681029  RH  014%=      5-min Rain = 0
KFAS 132115Z 26010KT 27/M03 A2995 RMK A01 T02691028  RH  014%=      5-min Rain = 0
KFAS 132120Z 26011G17KT 27/M03 A2995 RMK A01 T02701030  RH  014%=      5-min Rain = 0
KFAS 132125Z 26010KT 27/M03 A2995 RMK A01 T02701033  RH  013%=      5-min Rain = 0
KFAS 132130Z 25008KT 27/M04 A2995 RMK A01 T02711035  RH  013%=      5-min Rain = 0
KFAS 132135Z 28008KT 27/M04 A2995 RMK A01 T02721035  RH  013%=      5-min Rain = 0
KFAS 132140Z 26010G15KT 27/M04 A2996 RMK A01 T02721035  RH  013%=      5-min Rain = 0
KFAS 132145Z 26010KT 27/M04 A2995 RMK A01 T02721035  RH  013%=      5-min Rain = 0
KFAS 132150Z 27011KT 27/M04 A2995 RMK A01 T02711039  RH  013%=      5-min Rain = 0
KFAS 132155Z 27010KT 27/M04 A2995 RMK A01 T02701041  RH  013%=      5-min Rain = 0
KFAS 132200Z 25010KT 27/M03 A2995 RMK A01 T02711034  RH  013%=      5-min Rain = 0
KFAS 132205Z 24010KT 27/M03 A2995 RMK A01 T02721034  RH  013%=      5-min Rain = 0
KFAS 132210Z 25007KT 27/M04 A2995 RMK A01 T02731041  RH  013%=      5-min Rain = 0
KFAS 132215Z 27007KT 27/M03 A2995 RMK A01 T02741028  RH  014%=      5-min Rain = 0
KFAS 132220Z 27005KT 27/M04 A2995 RMK A01 T02731037  RH  013%=      5-min Rain = 0
KFAS 132225Z 25007KT 28/M03 A2995 RMK A01 T02751028  RH  014%=      5-min Rain = 0
KFAS 132230Z 23009KT 27/M03 A2995 RMK A01 T02731032  RH  013%=      5-min Rain = 0
KFAS 132235Z 26009KT 27/M03 A2995 RMK A01 T02711033  RH  013%=      5-min Rain = 0
KFAS 132240Z 26011KT 27/M04 A2995 RMK A01 T02691038  RH  013%=      5-min Rain = 0
KFAS 132245Z 26008KT 27/M04 A2995 RMK A01 T02681037  RH  013%=      5-min Rain = 0
KFAS 132250Z 24008KT 27/M03 A2995 RMK A01 T02681028  RH  014%=      5-min Rain = 0
KFAS 132255Z 26009KT 27/M03 A2995 RMK A01 T02661033  RH  014%=      5-min Rain = 0
KFAS 132300Z 25008KT 27/M03 A2995 RMK A01 T02651031  RH  014%=      5-min Rain = 0
KFAS 132305Z 25006KT 26/M01 A2995 RMK A01 T02641012  RH  016%=      5-min Rain = 0
KFAS 132310Z 25007KT 26/M02 A2995 RMK A01 T02621023  RH  015%=      5-min Rain = 0
KFAS 132315Z 25005KT 26/M02 A2996 RMK A01 T02611016  RH  016%=      5-min Rain = 0
KFAS 132320Z 24006KT 26/M01 A2996 RMK A01 T02591014  RH  017%=      5-min Rain = 0
KFAS 132325Z 25006KT 26/M01 A2996 RMK A01 T02571014  RH  017%=      5-min Rain = 0
KFAS 132330Z 24006KT 25/M00 A2996 RMK A01 T02531004  RH  019%=      5-min Rain = 0
KFAS 132335Z 23005KT 25/00 A2996 RMK A01 T02500001  RH  020%=      5-min Rain = 0
KFAS 132340Z 23005KT 25/01 A2996 RMK A01 T02460005  RH  021%=      5-min Rain = 0
KFAS 132345Z 24005KT 24/01 A2996 RMK A01 T02410007  RH  022%=      5-min Rain = 0
KFAS 132350Z 23006KT 24/00 A2996 RMK A01 T02370001  RH  021%=      5-min Rain = 0
KFAS 132355Z 23007KT 23/00 A2996 RMK A01 T02300004  RH  023%=      5-min Rain = 0
KFAS 140000Z 22007KT 22/00 A2996 RMK A01 T022200-0  RH  023%=      5-min Rain = 0
KFAS 140005Z 22007KT 21/00 A2996 RMK A01 T02140004  RH  025%=      5-min Rain = 0
KFAS 140010Z 22008KT 20/01 A2997 RMK A01 T02030005  RH  027%=      5-min Rain = 0
KFAS 140015Z 22007KT 19/01 A2997 RMK A01 T01940007  RH  029%=      5-min Rain = 0
KFAS 140020Z 22007KT 18/01 A2997 RMK A01 T01830012  RH  032%=      5-min Rain = 0
KFAS 140025Z 22007KT 17/01 A2997 RMK A01 T01740013  RH  034%=      5-min Rain = 0
KFAS 140030Z 21007KT 17/01 A2997 RMK A01 T01690013  RH  035%=      5-min Rain = 0
KFAS 140035Z 21008KT 17/01 A2997 RMK A01 T01670013  RH  036%=      5-min Rain = 0
KFAS 140040Z 21007KT 17/01 A2998 RMK A01 T01670014  RH  036%=      5-min Rain = 0
KFAS 140045Z 21008KT 16/02 A2998 RMK A01 T01630020  RH  039%=      5-min Rain = 0
KFAS 140050Z 21008KT 16/02 A2998 RMK A01 T01610022  RH  040%=      5-min Rain = 0
KFAS 140055Z 21008KT 16/02 A2998 RMK A01 T01600021  RH  040%=      5-min Rain = 0
KFAS 140100Z 20008KT 16/02 A2998 RMK A01 T01570022  RH  041%=      5-min Rain = 0
KFAS 140105Z 20009KT 15/02 A2998 RMK A01 T01540020  RH  041%=      5-min Rain = 0
KFAS 140110Z 21009KT 15/02 A2998 RMK A01 T01540018  RH  040%=      5-min Rain = 0
KFAS 140115Z 21010KT 16/02 A2998 RMK A01 T01550018  RH  040%=      5-min Rain = 0
KFAS 140120Z 21009KT 15/02 A2999 RMK A01 T01540019  RH  041%=      5-min Rain = 0
KFAS 140125Z 21010KT 15/02 A2999 RMK A01 T01540018  RH  041%=      5-min Rain = 0
KFAS 140130Z 21010KT 15/02 A2999 RMK A01 T01540018  RH  040%=      5-min Rain = 0
KFAS 140135Z 21010KT 15/02 A2999 RMK A01 T01520018  RH  041%=      5-min Rain = 0
KFAS 140140Z 20009KT 15/02 A2999 RMK A01 T01500020  RH  042%=      5-min Rain = 0
KFAS 140145Z 20009KT 15/02 A2999 RMK A01 T01490022  RH  043%=      5-min Rain = 0
KFAS 140150Z 20009KT 15/03 A30 RMK A01 T01480025  RH  044%=      5-min Rain = 0
KFAS 140155Z 20010KT 15/02 A30 RMK A01 T01490023  RH  043%=      5-min Rain = 0
KFAS 140200Z 20009KT 15/02 A30 RMK A01 T01520024  RH  043%=      5-min Rain = 0
KFAS 140205Z 20009KT 15/03 A30 RMK A01 T01510025  RH  043%=      5-min Rain = 0
KFAS 140210Z 20009KT 15/03 A30 RMK A01 T01500026  RH  044%=      5-min Rain = 0
KFAS 140215Z 20009KT 15/03 A30 RMK A01 T01460028  RH  046%=      5-min Rain = 0
KFAS 140220Z 20009KT 14/03 A30 RMK A01 T01420029  RH  047%=      5-min Rain = 0
KFAS 140225Z 20008KT 14/03 A30 RMK A01 T01390030  RH  048%=      5-min Rain = 0
KFAS 140230Z 20009KT 14/03 A30 RMK A01 T01390028  RH  048%=      5-min Rain = 0
KFAS 140235Z 21009KT 14/03 A30 RMK A01 T01440028  RH  046%=      5-min Rain = 0
KFAS 140240Z 21010KT 15/03 A30 RMK A01 T01470030  RH  046%=      5-min Rain = 0
KFAS 140245Z 21010KT 15/03 A30 RMK A01 T01470030  RH  046%=      5-min Rain = 0
KFAS 140250Z 21010KT 15/03 A30 RMK A01 T01460031  RH  047%=      5-min Rain = 0
KFAS 140255Z 21011KT 14/03 A30 RMK A01 T01440032  RH  048%=      5-min Rain = 0
KFAS 140300Z 21010KT 15/03 A30 RMK A01 T01470032  RH  047%=      5-min Rain = 0
KFAS 140305Z 21010KT 15/03 A30 RMK A01 T01470033  RH  047%=      5-min Rain = 0
KFAS 140310Z 21010KT 15/03 A30 RMK A01 T01470033  RH  047%=      5-min Rain = 0
KFAS 140315Z 21010KT 15/03 A30 RMK A01 T01490032  RH  046%=      5-min Rain = 0
KFAS 140320Z 21011KT 15/03 A3001 RMK A01 T01530030  RH  045%=      5-min Rain = 0
KFAS 140325Z 21010KT 15/03 A3001 RMK A01 T01540030  RH  044%=      5-min Rain = 0
KFAS 140330Z 21010KT 15/03 A3001 RMK A01 T01530030  RH  044%=      5-min Rain = 0
KFAS 140335Z 21010KT 15/03 A3001 RMK A01 T01520031  RH  045%=      5-min Rain = 0
KFAS 140340Z 21010KT 15/03 A3001 RMK A01 T01530029  RH  044%=      5-min Rain = 0
KFAS 140345Z 21010KT 15/03 A3001 RMK A01 T01530028  RH  044%=      5-min Rain = 0
KFAS 140350Z 21010KT 16/03 A3001 RMK A01 T01550026  RH  043%=      5-min Rain = 0
KFAS 140355Z 21011KT 16/02 A3001 RMK A01 T01580024  RH  041%=      5-min Rain = 0
KFAS 140400Z 21011KT 16/02 A3001 RMK A01 T01610023  RH  040%=      5-min Rain = 0
KFAS 140405Z 22012KT 16/02 A3001 RMK A01 T01620022  RH  039%=      5-min Rain = 0
KFAS 140410Z 21010KT 16/02 A3001 RMK A01 T01620023  RH  040%=      5-min Rain = 0
KFAS 140415Z 21009KT 16/02 A3001 RMK A01 T01570024  RH  041%=      5-min Rain = 0
KFAS 140420Z 21009KT 15/03 A3001 RMK A01 T01530025  RH  043%=      5-min Rain = 0
KFAS 140425Z 21008KT 15/03 A3001 RMK A01 T01510026  RH  044%=      5-min Rain = 0
KFAS 140430Z 21008KT 15/03 A3001 RMK A01 T01470027  RH  045%=      5-min Rain = 0
KFAS 140435Z 22008KT 14/03 A3001 RMK A01 T01430028  RH  047%=      5-min Rain = 0
KFAS 140440Z 22009KT 14/03 A3001 RMK A01 T01400028  RH  048%=      5-min Rain = 0
KFAS 140445Z 22008KT 14/03 A3001 RMK A01 T01420027  RH  047%=      5-min Rain = 0
KFAS 140450Z 22007KT 14/03 A3001 RMK A01 T01420027  RH  047%=      5-min Rain = 0
KFAS 140455Z 22007KT 14/03 A3001 RMK A01 T01380028  RH  048%=      5-min Rain = 0

Page generated in 0.009 seconds.